Date,TemperatureHighF,TemperatureAvgF,TemperatureLowF,DewpointHighF,DewpointAvgF,DewpointLowF,HumidityHigh,HumidityAvg,HumidityLow,PressureMaxIn,PressureMinIn,WindSpeedMaxMPH,WindSpeedAvgMPH,GustSpeedMaxMPH,PrecipitationSumIn
2013-9-1,85.3,67.6,56.3,58.0,52.5,47.3,76,60,36,30.26,30.19,0,0,0,0.00
2013-9-2,87.8,68.3,51.5,57.4,49.4,42.0,73,53,30,30.30,30.21,0,0,0,0.00
2013-9-3,83.7,68.6,51.7,55.8,49.2,41.9,72,52,34,30.31,30.24,0,0,0,0.00
2013-9-4,84.8,70.8,58.5,55.1,49.4,44.4,62,48,26,30.34,30.26,0,0,0,0.00
2013-9-5,84.6,67.9,52.2,53.2,46.9,40.8,67,49,28,30.35,30.27,0,0,0,0.00
2013-9-6,83.0,67.2,53.3,53.4,47.4,41.6,67,51,30,30.33,30.22,0,0,0,0.00
2013-9-7,80.6,64.2,56.0,53.8,49.1,44.2,73,59,38,30.28,30.21,0,0,0,0.60
2013-9-8,66.6,58.9,54.4,55.4,50.0,45.9,77,72,63,30.23,30.12,0,0,0,0.23
2013-9-9,58.7,56.2,48.8,51.5,48.5,40.6,78,76,73,30.15,30.05,0,0,0,1.22
2013-9-10,63.7,56.1,48.4,50.0,45.0,40.4,75,67,58,30.16,30.07,0,0,0,0.26
2013-9-11,70.2,58.4,49.9,51.0,43.9,36.1,65,59,49,30.23,30.15,0,0,0,0.08
2013-9-12,75.8,59.3,43.0,50.8,41.4,30.2,61,52,34,30.24,30.15,0,0,0,0.00
2013-9-13,78.3,60.6,45.2,51.8,42.5,31.7,60,52,35,30.18,30.06,0,0,0,0.00
2013-9-14,77.6,60.1,49.7,53.9,42.8,35.5,59,53,37,30.13,30.06,0,0,0,0.35
2013-9-15,79.6,61.0,45.7,52.6,42.2,32.0,60,51,32,30.21,30.11,0,0,0,0.00
2013-9-16,80.3,61.5,45.0,54.1,43.1,30.7,58,52,34,30.25,30.17,0,0,0,0.00
2013-9-17,78.1,63.6,49.0,55.2,44.7,34.8,58,51,37,30.20,30.07,0,0,0,0.00
2013-9-18,77.6,64.5,54.7,47.7,39.1,33.4,58,42,25,30.10,30.05,0,0,0,0.00
2013-9-19,80.3,61.9,42.8,47.3,39.0,29.9,60,45,26,30.16,30.09,0,0,0,0.00
2013-9-20,79.6,59.8,41.4,47.8,38.1,28.2,59,47,27,30.19,30.13,0,0,0,0.00
2013-9-21,76.0,58.0,44.1,50.8,40.3,30.2,59,53,38,30.17,30.09,0,0,0,0.69